createdAt,value
2019-04-10T00:02:37.646Z,6.83
2019-04-10T00:05:44.442Z,7.37
2019-04-10T00:08:50.953Z,6.83
2019-04-10T00:11:57.065Z,7.33
2019-04-10T00:15:03.104Z,6.13
2019-04-10T00:18:09.577Z,6.37
2019-04-10T00:21:17.526Z,6.60
2019-04-10T00:24:23.963Z,6.57
2019-04-10T00:27:30.420Z,6.23
2019-04-10T00:30:36.182Z,6.83
2019-04-10T00:33:42.963Z,6.90
2019-04-10T00:36:49.143Z,6.20
2019-04-10T00:39:55.105Z,6.30
2019-04-10T00:43:00.795Z,7.37
2019-04-10T00:46:06.547Z,6.67
2019-04-10T00:49:12.228Z,7.03
2019-04-10T00:52:17.895Z,7.20
2019-04-10T00:55:23.851Z,6.50
2019-04-10T00:58:30.217Z,7.00
2019-04-10T01:01:36.307Z,7.43
2019-04-10T01:04:43.085Z,6.67
2019-04-10T01:07:48.767Z,6.67
2019-04-10T01:10:54.743Z,6.73
2019-04-10T01:14:01.231Z,6.77
2019-04-10T01:17:07.017Z,6.57
2019-04-10T01:20:15.588Z,7.27
2019-04-10T01:23:22.508Z,6.63
2019-04-10T01:26:29.678Z,6.53
2019-04-10T01:29:35.700Z,6.43
2019-04-10T01:32:41.859Z,6.33
2019-04-10T01:35:48.739Z,5.90
2019-04-10T01:38:54.875Z,5.93
2019-04-10T01:42:00.676Z,5.70
2019-04-10T01:45:07.195Z,5.80
2019-04-10T01:48:12.982Z,6.17
2019-04-10T01:51:19.205Z,5.80
2019-04-10T01:54:24.945Z,5.20
2019-04-10T01:57:30.655Z,5.40
2019-04-10T02:00:37.558Z,5.23
2019-04-10T02:03:43.231Z,5.53
2019-04-10T02:06:49.555Z,5.60
2019-04-10T02:09:56.187Z,5.23
2019-04-10T02:13:01.979Z,6.30
2019-04-10T02:16:08.239Z,6.70
2019-04-10T02:19:14.328Z,6.30
2019-04-10T02:22:20.426Z,7.20
2019-04-10T02:25:26.186Z,6.27
2019-04-10T02:28:33.275Z,6.17
2019-04-10T02:31:39.577Z,5.47
2019-04-10T02:34:46.799Z,5.60
2019-04-10T02:37:55.522Z,5.13
2019-04-10T02:41:01.638Z,4.77
2019-04-10T02:44:07.989Z,5.00
2019-04-10T02:47:14.689Z,5.50
2019-04-10T02:50:20.796Z,5.10
2019-04-10T02:53:27.656Z,4.03
2019-04-10T02:56:33.466Z,3.90
2019-04-10T02:59:39.789Z,4.27
2019-04-10T03:02:47.737Z,4.10
2019-04-10T03:05:54.221Z,3.90
2019-04-10T03:09:14.780Z,3.53
2019-04-10T03:12:10.569Z,3.53
2019-04-10T03:15:17.285Z,3.80
2019-04-10T03:18:25.104Z,3.10
2019-04-10T03:21:31.305Z,3.13
2019-04-10T03:24:38.034Z,3.10
2019-04-10T03:27:44.794Z,3.57
2019-04-10T03:30:50.914Z,3.50
2019-04-10T03:34:03.584Z,3.70
2019-04-10T03:37:09.687Z,4.30
2019-04-10T03:40:15.595Z,3.87
2019-04-10T03:43:21.611Z,3.90
2019-04-10T03:46:27.735Z,4.13
2019-04-10T03:49:33.925Z,4.70
2019-04-10T03:52:41.162Z,5.07
2019-04-10T03:55:47.339Z,5.80
2019-04-10T03:58:52.986Z,6.10
2019-04-10T04:01:59.631Z,6.93
2019-04-10T04:05:06.531Z,7.10
2019-04-10T04:08:13.111Z,6.40
2019-04-10T04:11:19.698Z,5.80
2019-04-10T04:14:26.775Z,6.27
2019-04-10T04:17:34.003Z,6.20
2019-04-10T04:20:39.684Z,5.73
2019-04-10T04:23:45.355Z,5.50
2019-04-10T04:26:51.169Z,5.90
2019-04-10T04:30:00.757Z,5.07
2019-04-10T04:33:08.826Z,5.30
2019-04-10T04:36:14.490Z,5.47
2019-04-10T04:39:26.191Z,5.03
2019-04-10T04:42:28.436Z,5.23
2019-04-10T04:45:35.540Z,5.07
2019-04-10T04:48:41.285Z,5.77
2019-04-10T04:51:48.026Z,6.67
2019-04-10T04:54:53.790Z,7.00
2019-04-10T04:57:59.857Z,7.10
2019-04-10T05:01:06.303Z,7.30
2019-04-10T05:04:13.069Z,7.23
2019-04-10T05:07:18.931Z,7.00
2019-04-10T05:10:25.238Z,6.83
2019-04-10T05:13:31.337Z,7.50
2019-04-10T05:16:37.644Z,8.13
2019-04-10T05:19:43.360Z,8.40
2019-04-10T05:22:50.061Z,8.13
2019-04-10T05:25:56.471Z,8.30
2019-04-10T05:29:02.641Z,8.47
2019-04-10T05:32:09.287Z,7.70
2019-04-10T05:35:15.257Z,9.00
2019-04-10T05:38:21.155Z,8.93
2019-04-10T05:41:26.821Z,8.90
2019-04-10T05:44:32.509Z,9.33
2019-04-10T05:47:38.806Z,9.77
2019-04-10T05:50:53.863Z,9.87
2019-04-10T05:54:03.371Z,10.10
2019-04-10T05:57:10.450Z,9.50
2019-04-10T06:00:18.867Z,10.13
2019-04-10T06:03:25.689Z,10.97
2019-04-10T06:06:32.537Z,10.40
2019-04-10T06:09:38.623Z,10.60
2019-04-10T06:12:44.888Z,11.10
2019-04-10T06:15:50.912Z,11.07
2019-04-10T06:18:59.787Z,10.80
2019-04-10T06:22:05.725Z,10.43
2019-04-10T06:25:13.944Z,10.83
2019-04-10T06:28:19.910Z,11.63
2019-04-10T06:31:25.601Z,11.47
2019-04-10T06:34:32.272Z,11.07
2019-04-10T06:37:38.235Z,12.50
2019-04-10T06:40:44.092Z,12.40
2019-04-10T06:43:49.762Z,11.83
2019-04-10T06:46:55.430Z,18.53
2019-04-10T06:50:02.460Z,13.13
2019-04-10T06:53:08.503Z,12.50
2019-04-10T06:56:14.155Z,11.77
2019-04-10T06:59:19.888Z,13.03
2019-04-10T07:02:29.513Z,12.37
2019-04-10T07:05:40.832Z,12.87
2019-04-10T07:08:46.325Z,12.77
2019-04-10T07:11:53.481Z,12.87
2019-04-10T07:14:58.252Z,14.20
2019-04-10T07:18:08.120Z,12.80
2019-04-10T07:21:14.594Z,13.07
2019-04-10T07:24:20.861Z,12.70
2019-04-10T07:27:27.743Z,12.03
2019-04-10T07:30:34.063Z,12.47
2019-04-10T07:33:40.634Z,12.57
2019-04-10T07:36:46.871Z,12.93
2019-04-10T07:39:53.019Z,13.10
2019-04-10T07:42:59.827Z,13.40
2019-04-10T07:46:05.594Z,12.53
2019-04-10T07:49:11.395Z,13.03
2019-04-10T07:52:19.714Z,13.60
2019-04-10T07:55:25.356Z,14.53
2019-04-10T07:58:31.337Z,13.77
2019-04-10T08:01:40.596Z,13.77
2019-04-10T08:04:48.352Z,15.00
2019-04-10T08:07:56.470Z,13.20
2019-04-10T08:11:02.436Z,14.30
2019-04-10T08:14:08.567Z,15.13
2019-04-10T08:17:14.470Z,14.80
2019-04-10T08:20:20.351Z,16.23
2019-04-10T08:23:26.229Z,14.87
2019-04-10T08:26:32.498Z,18.33
2019-04-10T08:29:39.360Z,15.70
2019-04-10T08:32:53.424Z,16.43
2019-04-10T08:35:52.663Z,16.30
2019-04-10T08:38:59.239Z,15.97
2019-04-10T08:42:05.117Z,15.97
2019-04-10T08:45:11.430Z,16.30
2019-04-10T08:48:17.726Z,15.20
2019-04-10T08:51:23.578Z,15.20
2019-04-10T08:54:29.277Z,15.13
2019-04-10T08:57:36.116Z,13.13
2019-04-10T09:00:42.822Z,14.37
2019-04-10T09:03:48.934Z,14.33
2019-04-10T09:06:55.778Z,13.93
2019-04-10T09:10:01.954Z,15.67
2019-04-10T09:13:10.377Z,13.67
2019-04-10T09:16:16.244Z,15.87
2019-04-10T09:19:22.216Z,14.00
2019-04-10T09:22:30.097Z,13.47
2019-04-10T09:25:35.546Z,15.13
2019-04-10T09:28:42.249Z,13.43
2019-04-10T09:31:48.190Z,14.70
2019-04-10T09:34:53.995Z,14.07
2019-04-10T09:37:59.740Z,13.33
2019-04-10T09:41:05.740Z,13.87
2019-04-10T09:44:12.370Z,14.43
2019-04-10T09:47:18.422Z,15.20
2019-04-10T09:50:25.101Z,15.17
2019-04-10T09:53:31.655Z,14.37
2019-04-10T09:56:38.472Z,15.13
2019-04-10T09:59:45.620Z,14.67
2019-04-10T10:02:52.871Z,14.53
2019-04-10T10:06:00.132Z,15.17
2019-04-10T10:09:08.392Z,14.33
2019-04-10T10:12:14.521Z,16.70
2019-04-10T10:15:21.053Z,14.70
2019-04-10T10:18:27.721Z,14.53
2019-04-10T10:21:34.557Z,14.67
2019-04-10T10:24:40.538Z,14.37
2019-04-10T10:27:46.869Z,14.20
2019-04-10T10:30:52.665Z,14.93
2019-04-10T10:33:58.445Z,14.70
2019-04-10T10:37:10.487Z,15.63
2019-04-10T10:40:17.481Z,14.97
2019-04-10T10:43:24.521Z,14.87
2019-04-10T10:46:31.384Z,14.60
2019-04-10T10:49:37.272Z,13.67
2019-04-10T10:52:43.833Z,13.43
2019-04-10T10:55:49.786Z,12.20
2019-04-10T10:58:57.798Z,12.60
2019-04-10T11:02:02.975Z,12.00
2019-04-10T11:05:09.096Z,11.83
2019-04-10T11:08:18.155Z,11.10
2019-04-10T11:11:25.236Z,11.10
2019-04-10T11:14:31.542Z,10.20
2019-04-10T11:17:38.471Z,9.80
2019-04-10T11:20:48.440Z,11.13
2019-04-10T11:23:55.603Z,9.83
2019-04-10T11:27:02.768Z,8.50
2019-04-10T11:30:10.127Z,9.20
2019-04-10T11:33:17.563Z,8.53
2019-04-10T11:36:24.085Z,9.90
2019-04-10T11:39:35.270Z,10.47
2019-04-10T11:42:40.538Z,11.30
2019-04-10T11:45:52.452Z,13.77
2019-04-10T11:48:55.434Z,14.23
2019-04-10T11:52:03.116Z,11.47
2019-04-10T11:55:16.033Z,14.40
2019-04-10T11:58:18.708Z,12.00
2019-04-10T12:04:44.532Z,10.27
2019-04-10T12:13:54.891Z,11.27
2019-04-10T12:17:01.352Z,11.23
2019-04-10T12:20:07.627Z,9.67
2019-04-10T12:23:13.656Z,10.13
2019-04-10T12:26:19.955Z,8.33
2019-04-10T12:29:26.726Z,8.50
2019-04-10T12:32:32.599Z,9.83
2019-04-10T12:35:38.649Z,8.57
2019-04-10T12:38:45.726Z,9.63
2019-04-10T12:41:52.001Z,11.30
2019-04-10T12:44:57.895Z,10.47
2019-04-10T12:48:04.152Z,9.67
2019-04-10T12:51:10.504Z,9.93
2019-04-10T12:54:17.197Z,9.33
2019-04-10T12:57:24.946Z,11.03
2019-04-10T13:00:31.644Z,10.47
2019-04-10T13:03:38.934Z,11.17
2019-04-10T13:06:46.433Z,10.50
2019-04-10T13:09:52.249Z,10.70
2019-04-10T13:12:57.987Z,11.10
2019-04-10T13:16:03.780Z,10.90
2019-04-10T13:19:09.641Z,12.50
2019-04-10T13:22:15.913Z,12.07
2019-04-10T13:25:22.060Z,10.73
2019-04-10T13:28:27.771Z,10.80
2019-04-10T13:31:33.603Z,11.60
2019-04-10T13:34:39.638Z,11.47
2019-04-10T13:37:45.578Z,11.50
2019-04-10T13:40:52.125Z,12.47
2019-04-10T13:43:58.213Z,11.13
2019-04-10T13:47:05.018Z,10.20
2019-04-10T13:50:12.703Z,10.37
2019-04-10T13:53:18.563Z,11.27
2019-04-10T13:56:25.344Z,11.73
2019-04-10T13:59:31.306Z,11.03
2019-04-10T14:02:37.744Z,11.57
2019-04-10T14:05:43.544Z,11.03
2019-04-10T14:09:07.924Z,10.83
2019-04-10T14:11:57.588Z,10.73
2019-04-10T14:15:04.826Z,11.20
2019-04-10T14:18:12.322Z,10.27
2019-04-10T14:21:18.840Z,9.20
2019-04-10T14:24:26.344Z,9.07
2019-04-10T14:27:33.269Z,8.67
2019-04-10T14:30:40.160Z,8.60
2019-04-10T14:33:46.895Z,7.10
2019-04-10T14:36:52.878Z,7.77
2019-04-10T14:39:58.547Z,7.40
2019-04-10T14:43:05.248Z,8.13
2019-04-10T14:46:12.456Z,7.97
2019-04-10T14:49:18.739Z,8.17
2019-04-10T14:52:25.360Z,7.07
2019-04-10T14:55:32.177Z,7.00
2019-04-10T14:58:39.023Z,6.97
2019-04-10T15:01:44.825Z,7.57
2019-04-10T15:04:51.286Z,6.67
2019-04-10T15:07:57.511Z,7.33
2019-04-10T15:11:04.437Z,6.70
2019-04-10T15:14:11.023Z,5.80
2019-04-10T15:17:17.347Z,5.33
2019-04-10T15:20:22.989Z,5.80
2019-04-10T15:23:29.613Z,7.43
2019-04-10T15:26:36.202Z,10.37
2019-04-10T15:29:43.001Z,11.63
2019-04-10T15:32:49.734Z,12.17
2019-04-10T15:35:55.524Z,12.07
2019-04-10T15:39:02.308Z,12.50
2019-04-10T15:42:09.944Z,14.53
2019-04-10T15:45:15.924Z,12.27
2019-04-10T15:48:22.791Z,13.47
2019-04-10T15:51:30.082Z,11.73
2019-04-10T15:54:36.193Z,12.50
2019-04-10T15:57:49.999Z,12.67
2019-04-10T16:00:50.213Z,11.67
2019-04-10T16:03:56.215Z,11.43
2019-04-10T16:07:02.179Z,12.33
2019-04-10T16:10:31.332Z,12.17
2019-04-10T16:13:39.377Z,11.90
2019-04-10T16:17:04.698Z,13.20
2019-04-10T16:20:31.146Z,12.17
2019-04-10T16:23:44.250Z,11.07
2019-04-10T16:26:50.088Z,11.93
2019-04-10T16:29:56.929Z,15.23
2019-04-10T16:33:03.011Z,14.47
2019-04-10T16:36:08.832Z,49.80
2019-04-10T16:39:17.551Z,49.13
2019-04-10T16:42:24.474Z,58.20
2019-04-10T16:45:30.706Z,27.00
2019-04-10T16:48:36.765Z,22.30
2019-04-10T16:51:42.645Z,43.30
2019-04-10T16:54:49.309Z,89.20
2019-04-10T16:57:55.688Z,41.23
2019-04-10T17:01:02.298Z,23.53
2019-04-10T17:04:09.007Z,28.00
2019-04-10T17:07:14.942Z,26.00
2019-04-10T17:10:24.415Z,28.27
2019-04-10T17:13:30.708Z,28.77
2019-04-10T17:16:37.780Z,37.00
2019-04-10T17:19:49.350Z,22.43
2019-04-10T17:22:52.083Z,19.57
2019-04-10T17:25:58.277Z,24.17
2019-04-10T17:29:05.051Z,25.53
2019-04-10T17:32:12.985Z,26.43
2019-04-10T17:35:21.403Z,16.97
2019-04-10T17:38:30.927Z,15.93
2019-04-10T17:41:41.725Z,10.70
2019-04-10T17:44:47.881Z,10.07
2019-04-10T17:47:54.971Z,10.43
2019-04-10T17:51:01.614Z,7.63
2019-04-10T17:54:07.500Z,7.50
2019-04-10T17:57:13.263Z,8.23
2019-04-10T18:01:12.560Z,7.67
2019-04-10T18:04:26.322Z,9.80
2019-04-10T18:07:32.263Z,8.53
2019-04-10T18:10:46.419Z,8.80
2019-04-10T18:13:46.807Z,10.50
2019-04-10T18:16:54.002Z,7.50
2019-04-10T18:20:00.752Z,9.17
2019-04-10T18:23:07.149Z,29.30
2019-04-10T18:26:14.170Z,10.60
2019-04-10T18:29:21.088Z,10.17
2019-04-10T18:32:26.963Z,10.50
2019-04-10T18:35:33.672Z,10.33
2019-04-10T18:38:39.619Z,11.17
2019-04-10T18:41:46.474Z,13.07
2019-04-10T18:44:53.256Z,11.93
2019-04-10T18:47:59.060Z,14.03
2019-04-10T18:51:06.659Z,14.33
2019-04-10T18:54:12.472Z,15.93
2019-04-10T18:57:18.330Z,45.00
2019-04-10T19:00:46.238Z,76.57
2019-04-10T19:04:05.944Z,84.47
2019-04-10T19:07:11.707Z,47.10
2019-04-10T19:10:17.851Z,55.23
2019-04-10T19:13:24.820Z,71.77
2019-04-10T19:16:30.717Z,71.20
2019-04-10T19:19:40.368Z,73.50
2019-04-10T19:22:44.679Z,86.67
2019-04-10T19:25:51.218Z,89.80
2019-04-10T19:28:57.557Z,81.97
2019-04-10T19:32:05.638Z,66.83
2019-04-10T19:35:11.412Z,54.27
2019-04-10T19:38:17.224Z,51.63
2019-04-10T19:41:29.710Z,25.67
2019-04-10T19:44:30.872Z,38.40
2019-04-10T19:47:38.731Z,42.30
2019-04-10T19:50:45.640Z,29.43
2019-04-10T19:53:51.348Z,25.57
2019-04-10T19:56:57.129Z,25.93
2019-04-10T20:00:02.825Z,25.03
2019-04-10T20:03:08.887Z,32.33
2019-04-10T20:06:14.611Z,45.07
2019-04-10T20:09:20.808Z,39.50
2019-04-10T20:12:26.812Z,31.30
2019-04-10T20:15:32.566Z,24.43
2019-04-10T20:18:39.018Z,27.17
2019-04-10T20:21:44.742Z,35.93
2019-04-10T20:24:51.910Z,50.23
2019-04-10T20:27:58.492Z,37.77
2019-04-10T20:31:06.984Z,33.10
2019-04-10T20:34:13.631Z,25.07
2019-04-10T20:37:20.680Z,18.40
2019-04-10T20:40:27.582Z,16.30
2019-04-10T20:43:33.760Z,14.90
2019-04-10T20:46:39.618Z,14.33
2019-04-10T20:49:45.366Z,13.70
2019-04-10T20:52:51.573Z,14.50
2019-04-10T20:55:57.820Z,13.37
2019-04-10T20:59:03.655Z,13.63
2019-04-10T21:02:09.781Z,13.27
2019-04-10T21:05:17.899Z,12.93
2019-04-10T21:08:23.698Z,12.20
2019-04-10T21:11:29.360Z,12.13
2019-04-10T21:14:35.887Z,11.80
2019-04-10T21:17:42.449Z,12.20
2019-04-10T21:20:49.147Z,12.53
2019-04-10T21:23:56.405Z,11.73
2019-04-10T21:27:03.343Z,12.40
2019-04-10T21:30:44.535Z,12.13
2019-04-10T21:34:07.783Z,12.90
2019-04-10T21:37:13.639Z,13.70
2019-04-10T21:40:19.272Z,13.73
2019-04-10T21:43:26.138Z,13.97
2019-04-10T21:46:32.614Z,14.13
2019-04-10T21:49:38.386Z,14.53
2019-04-10T21:52:44.137Z,14.03
2019-04-10T21:55:49.821Z,14.87
2019-04-10T21:58:55.516Z,14.17
2019-04-10T22:02:01.268Z,14.47
2019-04-10T22:05:08.166Z,14.03
2019-04-10T22:08:23.274Z,14.40
2019-04-10T22:11:30.802Z,15.00
2019-04-10T22:14:36.594Z,14.33
2019-04-10T22:17:42.687Z,14.03
2019-04-10T22:20:48.478Z,14.63
2019-04-10T22:23:54.165Z,15.30
2019-04-10T22:27:00.844Z,14.80
2019-04-10T22:30:08.361Z,14.70
2019-04-10T22:33:14.402Z,14.33
2019-04-10T22:36:20.753Z,15.17
2019-04-10T22:39:27.456Z,15.07
2019-04-10T22:42:40.120Z,14.73
2019-04-10T22:45:40.625Z,14.70
2019-04-10T22:48:46.420Z,15.77
2019-04-10T22:51:52.158Z,53.80
2019-04-10T22:54:57.847Z,58.93
2019-04-10T22:58:04.516Z,20.37
2019-04-10T23:01:13.143Z,15.17
2019-04-10T23:04:20.194Z,15.07
2019-04-10T23:07:26.118Z,18.57
2019-04-10T23:10:31.753Z,25.57
2019-04-10T23:13:38.299Z,26.60
2019-04-10T23:16:44.265Z,25.47
2019-04-10T23:19:50.381Z,17.33
2019-04-10T23:22:56.748Z,18.77
2019-04-10T23:26:02.693Z,14.13
2019-04-10T23:29:08.503Z,14.00
2019-04-10T23:32:15.213Z,13.23
2019-04-10T23:35:21.282Z,12.23
2019-04-10T23:38:27.776Z,13.90
2019-04-10T23:41:33.767Z,13.33
2019-04-10T23:44:39.394Z,13.67
2019-04-10T23:47:46.436Z,12.80
2019-04-10T23:50:52.386Z,13.70
2019-04-10T23:53:58.144Z,12.43
2019-04-10T23:57:03.799Z,13.13
